Sunday, June 26, 2016
13:37 UTC
  |  Log In   |  Register Free
Airport Search:

Lawrence Smith Memorial Airport
(KLRY)

Lawrence Smith Memorial Airport Diagram
No Airport Diagram Available

FAA data valid effective May 26 2016 - Jul 21 2016 (unless otherwise noted).

 
 
 
 
 
 
 
 
 
 
 
 
 
 
Current Aviation Weather for KLRY

Weather Summary


Current weather conditions are not available for LRY - The nearest NOAA weather station is at LXT, (21 nm NW from LRY)

The most recent METAR observation for LRY was updated at: 12:53 UTC
METAR for KLRY is not available. Closest METAR is for KOJC 23.3 nm SE
KOJC  (23.3 nm SE)   (most recent observation was updated at 26:12 UTC)
261253Z 36005KT 10SM CLR 26/21 A3005 RMK AO2 SLP161 T02610206

KIXD  (28.8 nm SE)   (most recent observation was updated at 26:12 UTC)
261253Z 34004KT 10SM CLR 26/21 A3005 RMK AO2 SLP162 T02560206

TAF for KLRY is not available.
KIXD  (28.8 nm SE)   (most recent observation was updatred at 26:11 UTC)
261120Z 2612/2712 33006KT P6SM SCT060 FM261600 01006KT P6SM VCTS BKN050CB FM262300 09005KT P6SM SCT150


KMKC  (32.9 nm SE)   (most recent observation was updatred at 26:11 UTC)
261120Z 2612/2712 31006KT P6SM SCT060 FM261600 36006KT P6SM VCTS BKN050CB FM262200 10005KT P6SM SCT150


GlobalAir.com is loading additional information.
 Current Weather at LXT
79.0 F° (26.1 C°)

West winds at 4.6 mph
Pressure:
30.05 in
Humidity:
74%
Wind:
West at 4.6 mph
Dew Point:
70.0 F° (21.1 C°)
Visibility:
10.00 mi
LRY NOAA Radar




Find All Airport Services Find A Hotel Find A Rental Car Find A Golf Course Find A Restaurant $100 Hamburger



Airport Weather Forecast for KLRY

Translated METAR for KLXT (1253 UTC)
METAR:
KLXT 261253Z AUTO 00000KT 10SM CLR 27/21 A3005 RMK AO2 SLP162 T02720211
Conditions at:
KLXT (Lee'S Summit Muni, MO) observed 1253 UTC 26 June 2016
Temperature:
27°C (80.6°F)
Dewpoint:
21°C (69.8°F) [RH = 69.7]
Pressure:
30.05 inches Hg (1017.6 mb)
pressure at sea level is 162 in Hg
Winds:
from the N (000 degrees) at 0 mph (0 knots: 0 m/s)
Visibility:
10 mile(s)
Ceiling:
at least 12,000 feet AGL
Clouds:
Clear below 12,000 feet AGL
Remarks:
site is un-manned
site is automated and HAS a precipitation sensor

Translated TAF for KIXD (New Century Aircenter, KS) (1120 UTC)
TAF text:
KIXD 261120Z 2612/2712 33006KT P6SM SCT060
Forecast period:
Sunday Jun 26 2016 12:00 UTC - Monday Jun 27 2016 12:00 UTC
Forecast type:
FROM: standard forecast or significant change
Winds:
from the NNW (330 degrees) at 6.9 mph (6 knots: 3.1 m/s)
Visibility:
6 or more mile(s) (9.7+ km)
Ceiling:
at least 12,000 feet AGL
Clouds:
Scattered Clouds at 6,000 feet AGL
Weather:
no significant weather observed at this time
TAF text:
FM261600 01006KT P6SM VCTS BKN050CB
Forecast period:
Sunday Jun 26 2016 16:00 UTC - Sunday Jun 26 2016 23:00 UTC
Forecast type:
FROM: standard forecast or significant change
Winds:
from the N (010 degrees) at 6.9 mph (6 knots: 3.1 m/s)
Visibility:
6 or more mile(s) (9.7+ km)
Ceiling:
Clouds:
Weather:
Moderate In Vicinity Thunderstorm
TAF text:
FM262300 09005KT P6SM SCT150
Forecast period:
Sunday Jun 26 2016 23:00 UTC - Monday Jun 27 2016 12:00 UTC
Forecast type:
FROM: standard forecast or significant change
Winds:
from the E (090 degrees) at 5.8 mph (5 knots: 2.6 m/s)
Visibility:
6 or more mile(s) (9.7+ km)
Ceiling:
at least 12,000 feet AGL
Clouds:
Scattered Clouds at 15,000 feet AGL
Weather:
no significant weather observed at this time
FBO's on the Field
FBO Company Facility Photos Services Transportation Aviation Fuel Prices: Prices include tax
Catering Weather Repair Courtesy Rental Type 100LL JetA JetA+ MOGAS 8087
 
City of Harrisonville

This FBO has not yet been rated
FS:Phillips 66
Last Updated: May-20
Login to update fuel prices
SS:
Contact City of HarrisonvilleMore FBO Information
 
Add another FBO Facility Photos Catering Weather Repair Courtesy Rental Type 100LL JetA JetA+ MOGAS 8087
Services Transportation Aviation Fuel Prices: Prices include tax


model-print
model-print
model-print
model-print